createdAt,value
2019-05-13T00:01:37.092Z,1.80
2019-05-13T00:04:07.107Z,1.70
2019-05-13T00:06:50.281Z,1.80
2019-05-13T00:09:08.766Z,2.00
2019-05-13T00:11:38.654Z,2.10
2019-05-13T00:14:08.581Z,1.40
2019-05-13T00:16:38.526Z,1.70
2019-05-13T00:19:08.449Z,2.00
2019-05-13T00:21:38.332Z,1.73
2019-05-13T00:24:08.217Z,1.60
2019-05-13T00:26:38.089Z,1.90
2019-05-13T00:29:08.066Z,1.50
2019-05-13T00:31:37.943Z,2.00
2019-05-13T00:34:07.953Z,1.50
2019-05-13T00:36:37.867Z,1.73
2019-05-13T00:39:09.052Z,1.70
2019-05-13T00:41:38.916Z,1.30
2019-05-13T00:44:08.869Z,1.83
2019-05-13T00:46:38.767Z,1.70
2019-05-13T00:49:08.640Z,1.67
2019-05-13T00:51:38.516Z,1.70
2019-05-13T00:54:08.385Z,2.00
2019-05-13T00:56:38.425Z,1.80
2019-05-13T00:59:08.319Z,2.00
2019-05-13T01:01:38.199Z,1.60
2019-05-13T01:04:08.148Z,2.00
2019-05-13T01:06:38.023Z,1.60
2019-05-13T01:09:09.015Z,1.60
2019-05-13T01:11:38.975Z,1.70
2019-05-13T01:14:08.853Z,1.93
2019-05-13T01:16:38.726Z,2.20
2019-05-13T01:19:08.594Z,1.70
2019-05-13T01:21:38.459Z,1.57
2019-05-13T01:24:08.398Z,1.50
2019-05-13T01:26:38.269Z,1.57
2019-05-13T01:29:08.139Z,2.13
2019-05-13T01:31:38.089Z,2.03
2019-05-13T01:34:07.958Z,1.77
2019-05-13T01:36:37.833Z,1.93
2019-05-13T01:39:08.175Z,1.23
2019-05-13T01:41:38.085Z,1.60
2019-05-13T01:44:08.023Z,1.47
2019-05-13T01:46:37.892Z,2.10
2019-05-13T01:49:07.754Z,1.60
2019-05-13T01:51:37.616Z,1.60
2019-05-13T01:54:07.485Z,1.93
2019-05-13T01:56:56.669Z,1.90
2019-05-13T01:59:26.627Z,1.73
2019-05-13T02:01:56.549Z,1.70
2019-05-13T02:04:26.469Z,2.00
2019-05-13T02:06:56.431Z,1.40
2019-05-13T02:09:26.699Z,1.70
2019-05-13T02:11:56.629Z,1.90
2019-05-13T02:14:26.555Z,1.87
2019-05-13T02:16:56.472Z,1.87
2019-05-13T02:19:26.373Z,1.77
2019-05-13T02:21:56.317Z,2.23
2019-05-13T02:24:26.232Z,1.80
2019-05-13T02:26:56.124Z,1.90
2019-05-13T02:29:26.149Z,1.60
2019-05-13T02:31:56.567Z,2.23
2019-05-13T02:34:26.489Z,2.17
2019-05-13T02:36:56.438Z,2.37
2019-05-13T02:39:26.377Z,1.87
2019-05-13T02:41:56.365Z,2.80
2019-05-13T02:44:26.318Z,3.20
2019-05-13T02:46:56.359Z,2.73
2019-05-13T02:49:26.364Z,2.40
2019-05-13T02:51:56.251Z,2.20
2019-05-13T02:54:26.256Z,2.57
2019-05-13T02:56:56.180Z,2.23
2019-05-13T02:59:26.114Z,2.70
2019-05-13T03:01:56.025Z,2.87
2019-05-13T03:04:25.940Z,2.20
2019-05-13T03:06:56.224Z,3.00
2019-05-13T03:09:26.138Z,2.73
2019-05-13T03:11:56.645Z,2.40
2019-05-13T03:14:26.553Z,2.03
2019-05-13T03:17:09.103Z,2.70
2019-05-13T03:19:39.025Z,2.40
2019-05-13T03:22:08.957Z,2.40
2019-05-13T03:24:38.841Z,3.10
2019-05-13T03:27:08.774Z,2.90
2019-05-13T03:29:39.205Z,2.40
2019-05-13T03:32:15.409Z,3.53
2019-05-13T03:34:45.419Z,2.77
2019-05-13T03:37:15.735Z,2.87
2019-05-13T03:39:46.477Z,2.90
2019-05-13T03:42:16.555Z,2.40
2019-05-13T03:44:52.260Z,2.63
2019-05-13T03:47:24.199Z,2.10
2019-05-13T03:50:03.345Z,2.33
2019-05-13T03:52:33.586Z,2.33
2019-05-13T03:55:03.561Z,2.73
2019-05-13T03:57:33.975Z,3.23
2019-05-13T04:00:04.425Z,3.20
2019-05-13T04:02:35.051Z,3.13
2019-05-13T04:05:05.306Z,2.73
2019-05-13T04:07:35.392Z,2.80
2019-05-13T04:10:06.574Z,3.27
2019-05-13T04:12:36.719Z,2.87
2019-05-13T04:15:07.226Z,3.33
2019-05-13T04:17:37.377Z,2.57
2019-05-13T04:20:08.279Z,2.80
2019-05-13T04:22:38.201Z,3.10
2019-05-13T04:25:08.495Z,2.43
2019-05-13T04:27:38.613Z,3.00
2019-05-13T04:30:13.329Z,3.03
2019-05-13T04:32:44.105Z,2.70
2019-05-13T04:35:14.255Z,2.97
2019-05-13T04:37:44.634Z,3.43
2019-05-13T04:40:14.784Z,2.73
2019-05-13T04:42:45.056Z,2.93
2019-05-13T04:45:15.305Z,3.37
2019-05-13T04:47:45.521Z,3.97
2019-05-13T04:50:15.624Z,3.13
2019-05-13T04:52:45.672Z,2.80
2019-05-13T04:55:15.787Z,4.57
2019-05-13T04:57:45.813Z,5.00
2019-05-13T05:00:19.088Z,3.87
2019-05-13T05:03:13.699Z,3.57
2019-05-13T05:06:03.249Z,10.67
2019-05-13T05:09:27.863Z,4.90
2019-05-13T05:12:53.568Z,3.70
2019-05-13T05:16:12.839Z,10.47
2019-05-13T05:19:32.525Z,12.60
2019-05-13T05:23:13.737Z,4.20
2019-05-13T05:26:12.602Z,10.00
2019-05-13T05:29:21.740Z,3.63
2019-05-13T05:32:32.313Z,4.70
2019-05-13T05:35:51.879Z,3.70
2019-05-13T05:38:56.958Z,4.20
2019-05-13T05:41:31.719Z,3.10
2019-05-13T05:44:03.583Z,3.47
2019-05-13T05:46:35.401Z,3.30
2019-05-13T05:49:12.642Z,3.40
2019-05-13T05:51:43.361Z,3.23
2019-05-13T05:54:14.882Z,3.27
2019-05-13T05:56:51.880Z,3.37
2019-05-13T05:59:25.765Z,3.87
2019-05-13T06:01:58.450Z,3.20
2019-05-13T06:04:28.695Z,4.27
2019-05-13T06:06:58.863Z,3.97
2019-05-13T06:09:29.017Z,3.20
2019-05-13T06:12:01.527Z,3.27
2019-05-13T06:14:32.747Z,5.80
2019-05-13T06:17:03.095Z,3.70
2019-05-13T06:19:33.432Z,3.73
2019-05-13T06:22:03.548Z,3.37
2019-05-13T06:24:33.697Z,3.20
2019-05-13T06:27:03.752Z,2.93
2019-05-13T06:29:34.109Z,3.30
2019-05-13T06:32:17.805Z,4.23
2019-05-13T06:34:36.348Z,3.40
2019-05-13T06:37:07.281Z,3.70
2019-05-13T06:39:37.331Z,3.47
2019-05-13T06:42:07.311Z,3.00
2019-05-13T06:44:37.222Z,3.33
2019-05-13T06:47:07.161Z,3.70
2019-05-13T06:49:37.066Z,3.43
2019-05-13T06:52:07.361Z,3.67
2019-05-13T06:54:37.282Z,3.70
2019-05-13T06:57:07.268Z,3.10
2019-05-13T06:59:37.175Z,3.33
2019-05-13T07:02:07.240Z,3.20
2019-05-13T07:04:37.163Z,3.50
2019-05-13T07:07:13.203Z,3.73
2019-05-13T07:09:38.672Z,4.10
2019-05-13T07:12:08.583Z,3.07
2019-05-13T07:14:41.145Z,4.30
2019-05-13T07:17:12.321Z,4.40
2019-05-13T07:19:41.982Z,3.37
2019-05-13T07:22:12.018Z,3.40
2019-05-13T07:24:41.999Z,3.00
2019-05-13T07:27:12.359Z,2.80
2019-05-13T07:29:42.590Z,3.13
2019-05-13T07:32:12.757Z,2.20
2019-05-13T07:34:43.749Z,2.30
2019-05-13T07:37:14.427Z,3.53
2019-05-13T07:39:45.801Z,3.00
2019-05-13T07:42:15.711Z,2.90
2019-05-13T07:44:45.639Z,2.77
2019-05-13T07:47:16.168Z,2.97
2019-05-13T07:49:46.108Z,2.80
2019-05-13T07:52:16.083Z,2.40
2019-05-13T07:54:46.239Z,3.13
2019-05-13T07:57:16.210Z,2.77
2019-05-13T07:59:46.140Z,3.27
2019-05-13T08:02:16.119Z,2.70
2019-05-13T08:04:49.202Z,2.60
2019-05-13T08:07:17.716Z,2.40
2019-05-13T08:09:47.705Z,2.53
2019-05-13T08:12:17.789Z,2.23
2019-05-13T08:14:47.832Z,2.50
2019-05-13T08:17:18.273Z,2.57
2019-05-13T08:19:48.178Z,1.70
2019-05-13T08:22:18.084Z,1.70
2019-05-13T08:24:50.968Z,1.93
2019-05-13T08:27:21.574Z,2.27
2019-05-13T08:29:52.170Z,2.10
2019-05-13T08:32:22.490Z,2.10
2019-05-13T08:35:00.909Z,2.10
2019-05-13T08:37:24.150Z,2.20
2019-05-13T08:39:54.083Z,2.30
2019-05-13T08:42:24.034Z,2.33
2019-05-13T08:44:54.102Z,1.87
2019-05-13T08:47:23.984Z,2.10
2019-05-13T08:49:53.907Z,2.00
2019-05-13T08:52:23.883Z,1.90
2019-05-13T08:54:53.832Z,2.00
2019-05-13T08:57:23.732Z,1.87
2019-05-13T08:59:53.702Z,1.70
2019-05-13T09:02:23.611Z,1.70
2019-05-13T09:04:53.654Z,1.97
2019-05-13T09:07:24.468Z,1.80
2019-05-13T09:09:54.658Z,1.63
2019-05-13T09:12:32.054Z,1.60
2019-05-13T09:14:56.510Z,1.57
2019-05-13T09:17:26.434Z,1.50
2019-05-13T09:19:56.435Z,1.50
2019-05-13T09:22:26.409Z,1.80
2019-05-13T09:24:56.347Z,1.57
2019-05-13T09:27:26.264Z,1.97
2019-05-13T09:29:56.282Z,2.80
2019-05-13T09:32:26.200Z,2.27
2019-05-13T09:34:56.098Z,2.20
2019-05-13T09:37:25.999Z,1.50
2019-05-13T09:39:55.889Z,1.60
2019-05-13T09:42:25.801Z,3.23
2019-05-13T09:44:55.772Z,2.57
2019-05-13T09:47:28.362Z,1.50
2019-05-13T09:49:57.634Z,1.60
2019-05-13T09:52:27.568Z,2.07
2019-05-13T09:54:57.475Z,2.73
2019-05-13T09:57:27.504Z,2.30
2019-05-13T09:59:57.436Z,2.57
2019-05-13T10:02:27.340Z,2.33
2019-05-13T10:04:57.262Z,2.07
2019-05-13T10:07:27.247Z,1.70
2019-05-13T10:09:57.147Z,2.40
2019-05-13T10:12:27.126Z,2.30
2019-05-13T10:14:57.217Z,1.90
2019-05-13T10:17:27.196Z,1.60
2019-05-13T10:19:57.092Z,2.10
2019-05-13T10:22:27.088Z,1.80
2019-05-13T10:24:57.195Z,1.73
2019-05-13T10:27:27.534Z,2.00
2019-05-13T10:29:57.979Z,1.73
2019-05-13T10:32:28.147Z,1.70
2019-05-13T10:34:59.535Z,1.63
2019-05-13T10:37:29.573Z,3.37
2019-05-13T10:40:02.212Z,3.40
2019-05-13T10:42:31.379Z,2.93
2019-05-13T10:45:02.516Z,2.73
2019-05-13T10:47:32.846Z,3.23
2019-05-13T10:50:03.121Z,3.60
2019-05-13T10:52:33.038Z,3.03
2019-05-13T10:55:02.934Z,3.90
2019-05-13T10:57:33.150Z,1.67
2019-05-13T11:00:03.637Z,3.13
2019-05-13T11:02:33.711Z,1.60
2019-05-13T11:05:04.340Z,5.70
2019-05-13T11:07:34.284Z,3.40
2019-05-13T11:10:04.610Z,3.37
2019-05-13T11:12:34.807Z,1.90
2019-05-13T11:15:05.818Z,3.07
2019-05-13T11:17:35.774Z,2.73
2019-05-13T11:20:06.404Z,2.33
2019-05-13T11:22:36.344Z,2.53
2019-05-13T11:25:06.622Z,3.20
2019-05-13T11:27:36.569Z,2.30
2019-05-13T11:30:08.092Z,2.10
2019-05-13T11:32:38.293Z,2.87
2019-05-13T11:35:08.277Z,1.90
2019-05-13T11:37:38.232Z,2.00
2019-05-13T11:40:08.876Z,2.77
2019-05-13T11:42:38.865Z,1.73
2019-05-13T11:45:11.722Z,2.10
2019-05-13T11:47:41.690Z,2.30
2019-05-13T11:50:12.266Z,3.50
2019-05-13T11:52:42.761Z,1.30
2019-05-13T11:55:13.339Z,2.20
2019-05-13T11:57:44.408Z,1.80
2019-05-13T12:00:18.144Z,1.57
2019-05-13T12:02:51.995Z,1.90
2019-05-13T12:05:22.658Z,1.90
2019-05-13T12:07:53.480Z,1.90
2019-05-13T12:10:23.618Z,1.80
2019-05-13T12:12:53.525Z,1.70
2019-05-13T12:15:38.179Z,1.60
2019-05-13T12:17:55.360Z,1.60
2019-05-13T12:20:25.259Z,1.80
2019-05-13T12:22:55.179Z,1.50
2019-05-13T12:25:25.068Z,1.70
2019-05-13T12:27:55.044Z,1.60
2019-05-13T12:30:24.931Z,1.27
2019-05-13T12:32:55.033Z,1.47
2019-05-13T12:35:25.294Z,1.60
2019-05-13T12:37:55.185Z,1.20
2019-05-13T12:40:25.343Z,1.20
2019-05-13T12:42:55.228Z,1.80
2019-05-13T12:45:25.338Z,1.63
2019-05-13T12:47:55.342Z,1.00
2019-05-13T12:50:25.676Z,1.10
2019-05-13T12:52:55.651Z,1.23
2019-05-13T12:55:25.650Z,1.77
2019-05-13T12:57:55.972Z,1.40
2019-05-13T13:00:25.941Z,1.40
2019-05-13T13:02:55.845Z,1.17
2019-05-13T13:05:32.906Z,1.63
2019-05-13T13:08:16.688Z,1.30
2019-05-13T13:10:33.131Z,1.33
2019-05-13T13:13:02.197Z,1.27
2019-05-13T13:15:38.308Z,1.63
2019-05-13T13:18:04.271Z,1.43
2019-05-13T13:20:41.690Z,1.20
2019-05-13T13:23:05.907Z,1.50
2019-05-13T13:25:35.808Z,1.40
2019-05-13T13:28:11.299Z,1.30
2019-05-13T13:30:37.444Z,1.30
2019-05-13T13:33:07.442Z,1.60
2019-05-13T13:35:37.487Z,2.17
2019-05-13T13:38:07.458Z,1.50
2019-05-13T13:40:37.473Z,1.23
2019-05-13T13:43:08.406Z,1.40
2019-05-13T13:46:06.098Z,1.47
2019-05-13T13:48:13.419Z,1.37
2019-05-13T13:50:44.391Z,1.23
2019-05-13T13:53:14.260Z,0.90
2019-05-13T13:55:44.968Z,1.30
2019-05-13T13:58:14.953Z,1.37
2019-05-13T14:00:56.508Z,1.67
2019-05-13T14:03:16.623Z,1.20
2019-05-13T14:05:46.564Z,1.40
2019-05-13T14:08:16.709Z,1.60
2019-05-13T14:10:46.582Z,1.63
2019-05-13T14:13:16.548Z,1.60
2019-05-13T14:15:46.491Z,1.77
2019-05-13T14:18:16.379Z,1.63
2019-05-13T14:20:46.391Z,1.37
2019-05-13T14:23:16.283Z,1.50
2019-05-13T14:25:46.264Z,1.30
2019-05-13T14:28:17.620Z,1.47
2019-05-13T14:30:48.427Z,1.87
2019-05-13T14:33:18.304Z,1.13
2019-05-13T14:35:48.284Z,1.13
2019-05-13T14:38:18.163Z,1.30
2019-05-13T14:40:48.246Z,1.53
2019-05-13T14:43:18.274Z,1.30
2019-05-13T14:45:48.248Z,1.20
2019-05-13T14:48:18.124Z,1.30
2019-05-13T14:50:48.005Z,1.30
2019-05-13T14:53:17.928Z,1.83
2019-05-13T14:55:47.987Z,1.00
2019-05-13T14:58:17.890Z,1.27
2019-05-13T15:00:47.958Z,1.30
2019-05-13T15:03:18.319Z,1.63
2019-05-13T15:05:48.233Z,1.40
2019-05-13T15:08:22.122Z,1.00
2019-05-13T15:10:53.107Z,1.30
2019-05-13T15:13:21.732Z,1.10
2019-05-13T15:15:51.810Z,1.20
2019-05-13T15:18:22.359Z,1.20
2019-05-13T15:20:53.097Z,1.37
2019-05-13T15:23:23.404Z,1.30
2019-05-13T15:25:53.313Z,1.20
2019-05-13T15:28:23.223Z,1.10
2019-05-13T15:30:53.371Z,1.10
2019-05-13T15:33:23.354Z,1.40
2019-05-13T15:35:53.500Z,1.30
2019-05-13T15:38:23.465Z,1.17
2019-05-13T15:40:53.364Z,1.17
2019-05-13T15:43:23.476Z,1.20
2019-05-13T15:45:53.370Z,1.00
2019-05-13T15:48:23.347Z,1.23
2019-05-13T15:50:53.343Z,1.20
2019-05-13T15:53:23.228Z,1.20
2019-05-13T15:55:53.852Z,1.13
2019-05-13T15:58:38.935Z,1.00
2019-05-13T16:00:55.503Z,0.80
2019-05-13T16:03:25.725Z,0.93
2019-05-13T16:05:55.722Z,0.70
2019-05-13T16:08:25.607Z,0.90
2019-05-13T16:10:56.071Z,1.00
2019-05-13T16:13:26.867Z,0.87
2019-05-13T16:16:01.585Z,0.80
2019-05-13T16:18:31.901Z,1.13
2019-05-13T16:21:03.522Z,1.10
2019-05-13T16:23:33.853Z,0.80
2019-05-13T16:26:04.386Z,0.97
2019-05-13T16:28:35.368Z,1.17
2019-05-13T16:31:05.967Z,1.10
2019-05-13T16:33:36.399Z,1.30
2019-05-13T16:36:06.628Z,1.03
2019-05-13T16:38:36.638Z,1.03
2019-05-13T16:41:06.632Z,1.00
2019-05-13T16:43:37.386Z,1.10
2019-05-13T16:46:07.935Z,1.30
2019-05-13T16:48:38.493Z,1.67
2019-05-13T16:51:12.036Z,1.00
2019-05-13T16:53:42.210Z,1.10
2019-05-13T16:56:25.871Z,1.00
2019-05-13T16:58:44.876Z,1.20
2019-05-13T17:01:15.054Z,1.10
2019-05-13T17:03:44.971Z,0.90
2019-05-13T17:06:14.892Z,1.00
2019-05-13T17:08:45.396Z,1.20
2019-05-13T17:11:16.637Z,1.10
2019-05-13T17:13:47.174Z,0.87
2019-05-13T17:16:17.143Z,1.10
2019-05-13T17:18:48.259Z,1.10
2019-05-13T17:21:18.203Z,1.00
2019-05-13T17:23:48.093Z,1.23
2019-05-13T17:26:18.010Z,1.00
2019-05-13T17:28:47.910Z,0.90
2019-05-13T17:31:17.802Z,1.10
2019-05-13T17:33:47.937Z,1.00
2019-05-13T17:36:17.822Z,0.97
2019-05-13T17:38:47.818Z,1.17
2019-05-13T17:41:17.792Z,1.30
2019-05-13T17:43:47.882Z,1.00
2019-05-13T17:46:17.966Z,1.10
2019-05-13T17:48:47.923Z,1.00
2019-05-13T17:51:17.801Z,1.10
2019-05-13T17:53:47.783Z,1.30
2019-05-13T17:56:17.724Z,1.17
2019-05-13T17:58:47.779Z,1.50
2019-05-13T18:01:17.964Z,1.10
2019-05-13T18:03:47.893Z,1.53
2019-05-13T18:06:18.155Z,1.70
2019-05-13T18:08:48.051Z,1.20
2019-05-13T18:11:17.938Z,1.20
2019-05-13T18:13:47.806Z,1.20
2019-05-13T18:16:17.679Z,1.17
2019-05-13T18:18:47.846Z,1.17
2019-05-13T18:21:17.808Z,2.07
2019-05-13T18:23:47.688Z,1.20
2019-05-13T18:26:17.658Z,1.20
2019-05-13T18:28:47.604Z,1.23
2019-05-13T18:31:20.167Z,1.20
2019-05-13T18:33:51.109Z,1.40
2019-05-13T18:36:22.333Z,1.60
2019-05-13T18:38:52.546Z,1.73
2019-05-13T18:41:22.500Z,1.40
2019-05-13T18:43:54.921Z,1.40
2019-05-13T18:46:24.106Z,1.30
2019-05-13T18:48:59.059Z,1.50
2019-05-13T18:51:25.646Z,1.30
2019-05-13T18:53:55.550Z,1.30
2019-05-13T18:56:25.551Z,1.43
2019-05-13T18:58:55.522Z,1.43
2019-05-13T19:01:25.509Z,2.57
2019-05-13T19:03:55.425Z,1.40
2019-05-13T19:06:25.409Z,1.90
2019-05-13T19:08:55.408Z,1.37
2019-05-13T19:11:25.432Z,1.50
2019-05-13T19:13:55.398Z,1.20
2019-05-13T19:16:25.462Z,1.40
2019-05-13T19:18:55.358Z,1.70
2019-05-13T19:21:25.483Z,1.40
2019-05-13T19:23:55.425Z,1.47
2019-05-13T19:26:25.380Z,1.57
2019-05-13T19:28:55.295Z,1.70
2019-05-13T19:31:25.262Z,1.93
2019-05-13T19:33:55.133Z,1.60
2019-05-13T19:36:25.012Z,1.20
2019-05-13T19:38:55.180Z,1.43
2019-05-13T19:41:25.090Z,1.50
2019-05-13T19:43:54.991Z,2.10
2019-05-13T19:46:25.828Z,1.40
2019-05-13T19:48:55.809Z,1.63
2019-05-13T19:51:28.299Z,1.47
2019-05-13T19:53:57.322Z,1.50
2019-05-13T19:56:27.284Z,1.50
2019-05-13T19:58:57.182Z,1.53
2019-05-13T20:01:27.071Z,1.26
2019-05-13T20:03:56.933Z,1.50
2019-05-13T20:06:27.431Z,1.40
2019-05-13T20:08:57.254Z,1.60
2019-05-13T20:11:27.210Z,1.97
2019-05-13T20:13:57.113Z,1.63
2019-05-13T20:16:27.669Z,1.50
2019-05-13T20:18:57.494Z,1.90
2019-05-13T20:21:27.378Z,1.60
2019-05-13T20:23:57.251Z,1.37
2019-05-13T20:26:27.872Z,1.80
2019-05-13T20:28:57.720Z,1.50
2019-05-13T20:31:27.607Z,1.50
2019-05-13T20:33:57.552Z,1.50
2019-05-13T20:36:27.421Z,1.87
2019-05-13T20:38:57.298Z,2.10
2019-05-13T20:41:27.186Z,1.80
2019-05-13T20:43:57.127Z,8.37
2019-05-13T20:46:27.017Z,1.50
2019-05-13T20:48:56.890Z,2.00
2019-05-13T20:51:26.772Z,2.30
2019-05-13T20:53:56.662Z,1.90
2019-05-13T20:56:26.604Z,1.93
2019-05-13T20:58:56.506Z,2.00
2019-05-13T21:01:26.401Z,2.13
2019-05-13T21:03:56.276Z,1.90
2019-05-13T21:06:26.183Z,1.57
2019-05-13T21:08:56.048Z,1.83
2019-05-13T21:11:25.949Z,2.13
2019-05-13T21:13:56.087Z,2.13
2019-05-13T21:16:25.996Z,2.00
2019-05-13T21:18:55.886Z,1.73
2019-05-13T21:21:25.762Z,2.13
2019-05-13T21:23:55.671Z,1.77
2019-05-13T21:26:25.561Z,1.70
2019-05-13T21:28:56.765Z,1.70
2019-05-13T21:31:26.689Z,1.57
2019-05-13T21:33:56.598Z,1.97
2019-05-13T21:36:26.653Z,2.10
2019-05-13T21:38:56.638Z,1.80
2019-05-13T21:41:26.543Z,1.80
2019-05-13T21:43:56.564Z,1.60
2019-05-13T21:46:26.724Z,1.87
2019-05-13T21:48:56.639Z,2.47
2019-05-13T21:51:27.080Z,2.20
2019-05-13T21:53:57.079Z,1.90
2019-05-13T21:56:27.012Z,2.60
2019-05-13T21:58:56.959Z,2.57
2019-05-13T22:01:27.058Z,2.77
2019-05-13T22:03:57.137Z,2.70
2019-05-13T22:06:27.146Z,2.83
2019-05-13T22:08:57.138Z,2.47
2019-05-13T22:11:27.055Z,2.87
2019-05-13T22:13:56.948Z,4.03
2019-05-13T22:16:27.558Z,3.10
2019-05-13T22:18:57.734Z,2.90
2019-05-13T22:21:28.724Z,3.60
2019-05-13T22:24:02.126Z,3.83
2019-05-13T22:26:32.714Z,3.43
2019-05-13T22:29:02.921Z,2.77
2019-05-13T22:31:34.125Z,2.80
2019-05-13T22:34:04.209Z,2.13
2019-05-13T22:36:34.114Z,2.40
2019-05-13T22:39:05.257Z,2.70
2019-05-13T22:41:36.947Z,2.60
2019-05-13T22:44:07.467Z,2.10
2019-05-13T22:46:37.350Z,2.47
2019-05-13T22:49:07.281Z,2.60
2019-05-13T22:51:37.185Z,2.50
2019-05-13T22:54:07.198Z,2.27
2019-05-13T22:56:37.480Z,2.40
2019-05-13T22:59:07.555Z,2.00
2019-05-13T23:01:37.447Z,2.00
2019-05-13T23:04:07.444Z,2.10
2019-05-13T23:06:37.385Z,2.20
2019-05-13T23:09:07.788Z,1.60
2019-05-13T23:11:37.662Z,2.17
2019-05-13T23:14:10.931Z,1.70
2019-05-13T23:16:39.207Z,1.80
2019-05-13T23:19:11.006Z,1.80
2019-05-13T23:21:41.806Z,2.50
2019-05-13T23:24:11.945Z,2.23
2019-05-13T23:26:42.372Z,1.70
2019-05-13T23:29:12.283Z,1.60
2019-05-13T23:31:42.175Z,1.53
2019-05-13T23:34:12.224Z,1.90
2019-05-13T23:36:42.371Z,1.63
2019-05-13T23:39:12.458Z,1.67
2019-05-13T23:41:42.351Z,1.87
2019-05-13T23:44:23.793Z,1.90
2019-05-13T23:46:43.939Z,1.40
2019-05-13T23:49:13.856Z,1.70
2019-05-13T23:51:43.883Z,1.77
2019-05-13T23:54:14.033Z,1.67
2019-05-13T23:56:43.938Z,2.00
2019-05-13T23:59:13.881Z,1.43
